Time;durP1;ratioP1;P1;durP2;ratioP2;P2;SDS_P1;SDS_P2;PMS_P1;PMS_P2;Temp;Humidity;BMP_temperature;BMP_pressure;BME280_temperature;BME280_humidity;BME280_pressure;Samples;Min_cycle;Max_cycle;Signal;HPM_P1;HPM_P2
2022/01/29 00:00:09;;;;;;;50.20;18.85;;;5.80;99.90;;;;;;5014515;28;20073;-57
2022/01/29 00:02:34;;;;;;;58.42;21.73;;;5.80;99.90;;;;;;4989772;28;20041;-54
2022/01/29 00:05:00;;;;;;;56.05;20.45;;;5.80;99.90;;;;;;5017095;28;20029;-54
2022/01/29 00:07:26;;;;;;;58.58;20.67;;;5.80;99.90;;;;;;5009454;28;20375;-53
2022/01/29 00:09:51;;;;;;;56.00;20.25;;;5.80;99.90;;;;;;5016105;28;20802;-56
2022/01/29 00:12:17;;;;;;;45.28;20.00;;;5.80;99.90;;;;;;5026200;28;20142;-57
2022/01/29 00:14:44;;;;;;;64.00;24.40;;;5.80;99.90;;;;;;5016536;28;20034;-57
2022/01/29 00:17:12;;;;;;;63.78;24.60;;;5.80;99.90;;;;;;5016981;28;20042;-52
2022/01/29 00:19:40;;;;;;;71.90;25.02;;;5.90;99.90;;;;;;5020401;28;20109;-52
2022/01/29 00:22:06;;;;;;;58.13;24.60;;;5.90;99.90;;;;;;5024462;28;20112;-52
2022/01/29 00:24:32;;;;;;;55.47;24.85;;;5.80;99.90;;;;;;5020553;28;20026;-54
2022/01/29 00:26:58;;;;;;;56.58;24.63;;;5.90;99.90;;;;;;5023772;28;20125;-52
2022/01/29 00:29:23;;;;;;;67.45;25.48;;;5.80;99.90;;;;;;5023427;28;20045;-52
2022/01/29 00:31:49;;;;;;;61.10;26.38;;;5.80;99.90;;;;;;5021616;28;20076;-54
2022/01/29 00:34:15;;;;;;;65.22;26.67;;;5.90;99.90;;;;;;5012729;28;20431;-52
2022/01/29 00:36:41;;;;;;;62.95;25.13;;;5.90;99.90;;;;;;5016591;28;20105;-51
2022/01/29 00:39:06;;;;;;;65.10;27.67;;;5.90;99.90;;;;;;5015524;28;20207;-53
2022/01/29 00:41:32;;;;;;;64.90;27.27;;;5.90;99.90;;;;;;5017232;28;20079;-56
2022/01/29 00:43:58;;;;;;;69.53;27.58;;;5.90;99.90;;;;;;5013236;28;20060;-54
2022/01/29 00:46:24;;;;;;;64.55;27.65;;;5.90;99.90;;;;;;5014205;28;20050;-54
2022/01/29 00:48:49;;;;;;;65.40;28.05;;;5.90;99.90;;;;;;5028230;28;20033;-55
2022/01/29 00:51:15;;;;;;;72.28;28.42;;;5.90;99.90;;;;;;5023870;28;20384;-53
2022/01/29 00:53:41;;;;;;;79.90;31.42;;;5.90;99.90;;;;;;5029807;28;20033;-55
2022/01/29 00:56:09;;;;;;;71.47;31.70;;;5.90;99.90;;;;;;5023460;28;20041;-54
2022/01/29 00:58:34;;;;;;;59.65;27.45;;;5.90;99.90;;;;;;5028600;28;20112;-57
2022/01/29 01:01:00;;;;;;;77.07;33.58;;;5.80;99.90;;;;;;5023065;28;20129;-58
2022/01/29 01:03:26;;;;;;;71.03;33.80;;;5.80;99.90;;;;;;5028485;28;20525;-58
2022/01/29 01:05:52;;;;;;;77.03;33.45;;;5.80;99.90;;;;;;5023317;28;20021;-60
2022/01/29 01:08:18;;;;;;;90.80;37.60;;;5.70;99.90;;;;;;5029348;28;20065;-63
2022/01/29 01:10:43;;;;;;;92.13;37.78;;;5.70;99.90;;;;;;5023514;28;20026;-64
2022/01/29 01:13:09;;;;;;;88.63;38.60;;;5.60;99.90;;;;;;5029696;28;20119;-61
2022/01/29 01:15:35;;;;;;;91.43;38.78;;;5.60;99.90;;;;;;5019365;28;20200;-60
2022/01/29 01:18:00;;;;;;;100.13;41.67;;;5.50;99.90;;;;;;5009211;28;20041;-62
2022/01/29 01:20:26;;;;;;;89.28;40.17;;;5.50;99.90;;;;;;5019487;28;20026;-59
2022/01/29 01:22:52;;;;;;;96.45;40.53;;;5.50;99.90;;;;;;5024880;28;20437;-62
2022/01/29 01:25:17;;;;;;;99.90;41.70;;;5.50;99.90;;;;;;5022181;28;20029;-59
2022/01/29 01:27:43;;;;;;;108.00;43.63;;;5.50;99.90;;;;;;5024354;28;20025;-59
2022/01/29 01:30:09;;;;;;;94.80;43.13;;;5.50;99.90;;;;;;5015316;28;20120;-59
2022/01/29 01:32:36;;;;;;;119.25;45.13;;;5.50;99.90;;;;;;5015068;28;20099;-62
2022/01/29 01:35:24;;;;;;;106.47;46.30;;;5.50;99.90;;;;;;5023866;28;20033;-62
2022/01/29 01:37:58;;;;;;;134.02;47.92;;;5.50;99.90;;;;;;5017688;28;20491;-63
2022/01/29 01:40:25;;;;;;;111.93;47.65;;;5.50;99.90;;;;;;5020008;28;20415;-59
2022/01/29 01:42:58;;;;;;;106.63;48.40;;;5.50;99.90;;;;;;5023803;28;20038;-61
2022/01/29 01:45:23;;;;;;;109.32;48.47;;;5.50;99.90;;;;;;5022256;28;20106;-58
2022/01/29 01:47:49;;;;;;;110.05;49.83;;;5.50;99.90;;;;;;5024757;28;20450;-60
2022/01/29 01:50:15;;;;;;;115.38;49.38;;;5.50;99.90;;;;;;5021572;28;20041;-55
2022/01/29 01:52:41;;;;;;;116.50;50.60;;;5.50;99.90;;;;;;5014106;28;20057;-59
2022/01/29 01:55:07;;;;;;;119.80;48.78;;;5.50;99.90;;;;;;5019098;28;20053;-60
2022/01/29 01:57:33;;;;;;;125.20;50.65;;;5.50;99.90;;;;;;5013441;28;20499;-55
2022/01/29 01:59:59;;;;;;;128.70;52.22;;;5.50;99.90;;;;;;5022996;28;20101;-53
2022/01/29 02:02:24;;;;;;;124.35;52.78;;;5.60;99.90;;;;;;5012334;28;20049;-56
2022/01/29 02:04:50;;;;;;;138.75;54.95;;;5.50;99.90;;;;;;5022340;28;20475;-54
2022/01/29 02:07:17;;;;;;;126.53;55.05;;;5.50;99.90;;;;;;5024184;28;20493;-56
2022/01/29 02:09:43;;;;;;;140.80;57.35;;;5.50;99.90;;;;;;5020855;28;20471;-59
2022/01/29 02:12:10;;;;;;;125.40;52.78;;;5.50;99.90;;;;;;5013030;28;20041;-58
2022/01/29 02:14:38;;;;;;;132.45;56.33;;;5.60;99.90;;;;;;5011183;28;20026;-60
2022/01/29 02:17:04;;;;;;;140.63;57.72;;;5.60;99.90;;;;;;5016686;28;20120;-54
2022/01/29 02:19:31;;;;;;;139.25;56.83;;;5.60;99.90;;;;;;5022269;28;20075;-54
2022/01/29 02:21:57;;;;;;;156.77;61.42;;;5.60;99.90;;;;;;5023899;28;20025;-54
2022/01/29 02:24:24;;;;;;;130.80;54.58;;;5.60;99.90;;;;;;5019455;28;20029;-55
2022/01/29 02:26:50;;;;;;;135.50;56.35;;;5.60;99.90;;;;;;5022567;28;20044;-56
2022/01/29 02:29:16;;;;;;;143.85;57.63;;;5.60;99.90;;;;;;5030207;28;20037;-55
2022/01/29 02:31:51;;;;;;;132.02;56.08;;;5.60;99.90;;;;;;5013372;28;20033;-53
2022/01/29 02:34:17;;;;;;;136.35;55.53;;;5.70;99.90;;;;;;5010426;28;20030;-57
2022/01/29 02:36:44;;;;;;;124.20;52.70;;;5.60;99.90;;;;;;5016480;28;20144;-55
2022/01/29 02:39:11;;;;;;;127.93;54.72;;;5.70;99.90;;;;;;5025399;28;20022;-54
2022/01/29 02:41:40;;;;;;;149.95;57.17;;;5.70;99.90;;;;;;5017901;28;20037;-57
2022/01/29 02:44:06;;;;;;;139.80;56.65;;;5.60;99.90;;;;;;5010219;28;20033;-57
2022/01/29 02:46:48;;;;;;;149.63;59.20;;;5.70;99.90;;;;;;5020526;28;20033;-55
2022/01/29 02:49:25;;;;;;;151.48;59.00;;;5.70;99.90;;;;;;4998914;28;20606;-55
2022/01/29 02:51:56;;;;;;;157.38;59.80;;;5.70;99.90;;;;;;5003173;28;20409;-56
2022/01/29 02:54:23;;;;;;;145.73;56.67;;;5.70;99.90;;;;;;4996531;28;20030;-57
2022/01/29 02:56:49;;;;;;;142.90;57.03;;;5.60;99.90;;;;;;5000388;28;20045;-57
2022/01/29 02:59:15;;;;;;;139.75;55.67;;;5.70;99.90;;;;;;4995409;28;20381;-57
2022/01/29 03:01:42;;;;;;;147.45;57.17;;;5.70;99.90;;;;;;5001115;28;20028;-52
2022/01/29 03:04:08;;;;;;;151.23;59.88;;;5.70;99.90;;;;;;5006690;28;20100;-53
2022/01/29 03:06:34;;;;;;;144.20;57.65;;;5.70;99.90;;;;;;5006487;28;20076;-51
2022/01/29 03:09:01;;;;;;;152.40;57.80;;;5.70;99.90;;;;;;5001880;28;20038;-53
2022/01/29 03:11:27;;;;;;;149.60;54.75;;;5.70;99.90;;;;;;5011344;28;20030;-51
2022/01/29 03:13:53;;;;;;;154.35;58.58;;;5.70;99.90;;;;;;5004193;28;20553;-52
2022/01/29 03:16:19;;;;;;;144.95;56.00;;;5.70;99.90;;;;;;5009205;28;20042;-51
2022/01/29 03:18:45;;;;;;;152.57;57.70;;;5.70;99.90;;;;;;5022555;28;20037;-57
2022/01/29 03:21:11;;;;;;;150.75;57.60;;;5.70;99.90;;;;;;5003177;28;20033;-56
2022/01/29 03:23:36;;;;;;;164.10;56.65;;;5.70;99.90;;;;;;5012036;28;20460;-57
2022/01/29 03:26:04;;;;;;;145.18;55.75;;;5.70;99.90;;;;;;5007427;28;20034;-56
2022/01/29 03:28:30;;;;;;;148.55;54.75;;;5.70;99.90;;;;;;5004725;28;20044;-56
2022/01/29 03:30:56;;;;;;;156.75;54.65;;;5.70;99.90;;;;;;5001351;28;20030;-58
2022/01/29 03:33:22;;;;;;;164.13;57.95;;;5.70;99.90;;;;;;5013378;28;20033;-56
2022/01/29 03:35:48;;;;;;;139.43;48.72;;;5.70;99.90;;;;;;5005871;28;20040;-58
2022/01/29 03:38:14;;;;;;;154.23;54.50;;;5.70;99.90;;;;;;5013066;28;20033;-57
2022/01/29 03:40:41;;;;;;;154.80;54.75;;;5.70;99.90;;;;;;5002397;28;20475;-60
2022/01/29 03:43:10;;;;;;;135.10;52.42;;;5.70;99.90;;;;;;5009492;28;20113;-57
2022/01/29 03:45:36;;;;;;;133.90;53.03;;;5.80;99.90;;;;;;4999648;28;20112;-56
2022/01/29 03:48:02;;;;;;;138.73;51.00;;;5.80;99.90;;;;;;5012135;28;20129;-54
2022/01/29 03:50:28;;;;;;;140.48;51.47;;;5.80;99.90;;;;;;5006702;28;20022;-55
2022/01/29 03:52:54;;;;;;;131.88;49.20;;;5.80;99.90;;;;;;5013596;28;20060;-50
2022/01/29 03:55:20;;;;;;;141.95;52.17;;;5.80;99.90;;;;;;4996436;28;20037;-54
2022/01/29 03:57:46;;;;;;;134.02;48.25;;;5.80;99.90;;;;;;5011627;28;20041;-51
2022/01/29 04:00:12;;;;;;;130.88;49.25;;;5.80;99.90;;;;;;5007373;28;20399;-51
2022/01/29 04:02:37;;;;;;;125.20;49.15;;;5.90;99.90;;;;;;5014933;28;20030;-53
2022/01/29 04:05:06;;;;;;;141.55;53.10;;;5.80;99.90;;;;;;4997305;28;20050;-54
2022/01/29 04:07:32;;;;;;;121.63;47.15;;;5.90;99.90;;;;;;5012956;28;20102;-52
2022/01/29 04:09:59;;;;;;;129.15;48.88;;;5.90;99.90;;;;;;5010757;28;20955;-52
2022/01/29 04:12:27;;;;;;;116.13;45.00;;;5.90;99.90;;;;;;5005262;28;20048;-56
2022/01/29 04:14:54;;;;;;;122.45;48.78;;;5.90;99.90;;;;;;5015305;28;20505;-56
2022/01/29 04:17:20;;;;;;;132.13;49.47;;;5.90;99.90;;;;;;5000835;28;20089;-53
2022/01/29 04:19:46;;;;;;;131.00;47.58;;;5.90;99.90;;;;;;5008245;28;20453;-51
2022/01/29 04:22:11;;;;;;;110.70;45.03;;;5.90;99.90;;;;;;4997207;28;20161;-56
2022/01/29 04:24:37;;;;;;;115.32;46.35;;;6.00;99.90;;;;;;5002712;28;20475;-57
2022/01/29 04:27:10;;;;;;;114.82;43.55;;;6.00;99.90;;;;;;5010430;28;20038;-56
2022/01/29 04:29:51;;;;;;;115.32;45.85;;;6.00;99.90;;;;;;5012911;28;20029;-56
2022/01/29 04:32:20;;;;;;;112.07;45.93;;;6.00;99.90;;;;;;5009492;28;20072;-55
2022/01/29 04:34:46;;;;;;;105.43;42.42;;;6.00;99.90;;;;;;5013935;28;20044;-53
2022/01/29 04:37:11;;;;;;;105.78;42.88;;;6.00;99.90;;;;;;5009504;28;20034;-58
2022/01/29 04:39:37;;;;;;;104.95;40.13;;;6.00;99.90;;;;;;5006987;28;20034;-58
2022/01/29 04:42:03;;;;;;;105.25;42.22;;;6.10;99.90;;;;;;5009468;28;20034;-57
2022/01/29 04:44:29;;;;;;;107.93;43.20;;;6.10;99.90;;;;;;5001856;28;20037;-53
2022/01/29 04:46:54;;;;;;;100.35;41.60;;;6.10;99.90;;;;;;5014044;28;20416;-58
2022/01/29 04:49:20;;;;;;;95.45;39.13;;;6.10;99.90;;;;;;5003631;28;20114;-51
2022/01/29 04:51:45;;;;;;;105.60;43.63;;;6.10;99.90;;;;;;5014840;28;20029;-53
2022/01/29 04:54:11;;;;;;;104.88;43.97;;;6.20;99.90;;;;;;5000145;28;20491;-57
2022/01/29 04:56:37;;;;;;;101.95;43.03;;;6.20;99.90;;;;;;5019370;28;20026;-55
2022/01/29 04:59:03;;;;;;;113.15;43.13;;;6.20;99.90;;;;;;4997249;28;20022;-53
2022/01/29 05:01:28;;;;;;;114.82;45.65;;;6.20;99.90;;;;;;5009375;28;20042;-59
2022/01/29 05:03:54;;;;;;;112.03;44.20;;;6.20;99.90;;;;;;5009112;28;20368;-52
2022/01/29 05:06:20;;;;;;;113.65;44.63;;;6.20;99.90;;;;;;5010774;28;20388;-56
2022/01/29 05:08:46;;;;;;;91.15;36.25;;;6.20;99.90;;;;;;5013309;28;20037;-58
2022/01/29 05:11:13;;;;;;;112.85;45.13;;;6.20;99.90;;;;;;5002727;28;20027;-51
2022/01/29 05:13:40;;;;;;;98.60;38.47;;;6.20;99.90;;;;;;5015461;28;20101;-50
2022/01/29 05:16:33;;;;;;;104.60;41.60;;;6.30;99.90;;;;;;5001053;28;20035;-54
2022/01/29 05:27:13;;;;;;;106.78;41.00;;;6.40;99.90;;;;;;4996285;28;20045;-58
2022/01/29 05:29:39;;;;;;;97.40;39.35;;;6.40;99.90;;;;;;5016426;28;20038;-59
2022/01/29 05:32:07;;;;;;;87.50;34.55;;;6.40;99.90;;;;;;4992848;28;20070;-57
2022/01/29 05:34:33;;;;;;;87.43;35.95;;;6.40;99.90;;;;;;5012121;28;20045;-55
2022/01/29 05:37:01;;;;;;;89.03;36.03;;;6.40;99.90;;;;;;5019434;28;20041;-56
2022/01/29 05:39:27;;;;;;;91.32;37.67;;;6.50;99.90;;;;;;5010574;28;20121;-58
2022/01/29 05:41:54;;;;;;;84.43;35.63;;;6.50;99.90;;;;;;4998795;28;20101;-60
2022/01/29 05:44:19;;;;;;;82.80;33.90;;;6.50;99.90;;;;;;5022626;28;20049;-56
2022/01/29 05:46:45;;;;;;;84.65;35.50;;;6.50;99.90;;;;;;5004471;28;20029;-57
2022/01/29 05:49:11;;;;;;;86.78;34.67;;;6.60;99.90;;;;;;5012080;28;20456;-57
2022/01/29 05:51:36;;;;;;;81.72;34.13;;;6.60;99.90;;;;;;5010333;28;20036;-53
2022/01/29 05:54:03;;;;;;;79.28;33.83;;;6.60;99.90;;;;;;5016154;28;20124;-55
2022/01/29 05:56:29;;;;;;;86.55;36.88;;;6.60;99.90;;;;;;5014646;28;20057;-54
2022/01/29 05:58:55;;;;;;;75.68;32.47;;;6.60;99.90;;;;;;5004197;28;20487;-55
2022/01/29 06:01:21;;;;;;;75.35;32.67;;;6.60;99.90;;;;;;5013339;28;20083;-52
2022/01/29 06:03:47;;;;;;;71.78;33.63;;;6.70;99.90;;;;;;5017198;28;20030;-54
2022/01/29 06:06:13;;;;;;;74.80;33.38;;;6.70;99.90;;;;;;5016901;28;20034;-55
2022/01/29 06:08:39;;;;;;;55.42;23.83;;;6.70;99.90;;;;;;5023665;28;20032;-58
2022/01/29 06:11:05;;;;;;;72.93;30.73;;;6.80;99.90;;;;;;5024206;28;20205;-58
2022/01/29 06:13:30;;;;;;;66.18;31.02;;;6.80;99.90;;;;;;5022351;28;20483;-59
2022/01/29 06:15:56;;;;;;;75.72;32.67;;;6.70;99.90;;;;;;5020993;28;20124;-58
2022/01/29 06:18:23;;;;;;;78.63;32.78;;;6.80;99.90;;;;;;5022862;28;20033;-59
2022/01/29 06:20:51;;;;;;;68.97;29.83;;;6.80;99.90;;;;;;5019850;28;20022;-57
2022/01/29 06:23:21;;;;;;;66.65;32.17;;;6.80;99.90;;;;;;5007456;28;20026;-58
2022/01/29 06:25:47;;;;;;;65.25;28.85;;;6.80;99.90;;;;;;5021931;28;20032;-59
2022/01/29 06:28:12;;;;;;;62.53;28.15;;;6.90;99.90;;;;;;5022976;28;20137;-59
2022/01/29 06:30:38;;;;;;;79.47;33.78;;;6.90;99.90;;;;;;5024088;28;20537;-57
2022/01/29 06:33:08;;;;;;;76.25;32.17;;;6.90;99.90;;;;;;5027872;28;20018;-60
2022/01/29 06:35:34;;;;;;;83.13;33.33;;;6.90;99.90;;;;;;5011097;28;20038;-57
2022/01/29 06:37:59;;;;;;;80.07;33.10;;;6.90;99.90;;;;;;5009454;28;20451;-55
2022/01/29 06:40:25;;;;;;;79.38;33.72;;;6.90;99.90;;;;;;5020162;28;20030;-56
2022/01/29 06:42:51;;;;;;;87.95;35.08;;;6.90;99.90;;;;;;5026807;28;20479;-57
2022/01/29 06:45:16;;;;;;;85.07;35.70;;;7.00;99.90;;;;;;5018760;28;20465;-52
2022/01/29 06:47:42;;;;;;;88.88;37.47;;;7.00;99.90;;;;;;5029782;28;20040;-58
2022/01/29 06:50:08;;;;;;;89.43;35.50;;;7.00;99.90;;;;;;5014126;28;20041;-56
2022/01/29 06:52:33;;;;;;;88.82;35.30;;;7.00;99.90;;;;;;5021330;28;20037;-55
2022/01/29 06:54:59;;;;;;;101.35;40.53;;;7.10;99.90;;;;;;5019755;28;20105;-55
2022/01/29 06:57:25;;;;;;;103.50;38.97;;;7.10;99.90;;;;;;5028619;28;20026;-55
2022/01/29 06:59:50;;;;;;;97.57;39.75;;;7.10;99.90;;;;;;5020868;28;20034;-58
2022/01/29 07:02:16;;;;;;;88.78;36.55;;;7.10;99.90;;;;;;5026461;28;20040;-60
2022/01/29 07:04:42;;;;;;;98.70;40.17;;;7.10;99.90;;;;;;5022981;28;20503;-58
2022/01/29 07:07:07;;;;;;;96.03;38.00;;;7.10;99.90;;;;;;5026227;28;20025;-58
2022/01/29 07:09:33;;;;;;;92.97;38.58;;;7.20;99.90;;;;;;5020225;28;20513;-60
2022/01/29 07:12:08;;;;;;;89.18;35.67;;;7.20;99.90;;;;;;5012885;28;20053;-59
2022/01/29 07:14:37;;;;;;;88.75;36.63;;;7.20;99.90;;;;;;5011756;28;20466;-59
2022/01/29 07:17:03;;;;;;;86.47;36.15;;;7.20;99.90;;;;;;5014451;28;20120;-58
2022/01/29 07:19:29;;;;;;;89.00;38.25;;;7.30;99.90;;;;;;5018127;28;20519;-57
2022/01/29 07:21:54;;;;;;;77.18;31.33;;;7.30;99.90;;;;;;5013957;28;20042;-58
2022/01/29 07:24:20;;;;;;;74.90;33.42;;;7.30;99.90;;;;;;5021341;28;20029;-58
2022/01/29 07:26:46;;;;;;;58.30;27.00;;;7.30;99.90;;;;;;5023678;28;20490;-59
2022/01/29 07:29:11;;;;;;;70.55;30.75;;;7.40;99.90;;;;;;5017567;28;20050;-59
2022/01/29 07:31:39;;;;;;;67.50;30.42;;;7.40;99.90;;;;;;5012319;28;20060;-59
2022/01/29 07:34:04;;;;;;;61.83;28.25;;;7.40;99.90;;;;;;5020824;28;20041;-60
2022/01/29 07:36:30;;;;;;;65.35;29.23;;;7.40;99.90;;;;;;5025135;28;20042;-59
2022/01/29 07:38:55;;;;;;;71.90;29.33;;;7.40;99.90;;;;;;5012213;28;20084;-58
2022/01/29 07:41:21;;;;;;;67.28;28.80;;;7.50;99.90;;;;;;5024747;28;20464;-57
2022/01/29 07:43:47;;;;;;;58.03;25.52;;;7.50;99.90;;;;;;5016479;28;20037;-57
2022/01/29 07:46:12;;;;;;;59.80;27.42;;;7.50;99.90;;;;;;5026283;28;20036;-55
2022/01/29 07:48:38;;;;;;;59.40;27.85;;;7.50;99.90;;;;;;5016644;28;20080;-55
2022/01/29 07:51:03;;;;;;;54.30;26.38;;;7.50;99.90;;;;;;5015953;28;20087;-53
2022/01/29 07:53:29;;;;;;;59.03;26.48;;;7.50;99.90;;;;;;5020698;28;20041;-56
2022/01/29 07:55:54;;;;;;;59.35;26.60;;;7.50;99.90;;;;;;5020728;28;20435;-59
2022/01/29 07:58:20;;;;;;;61.25;26.75;;;7.50;99.90;;;;;;5023718;28;20037;-55
2022/01/29 08:00:48;;;;;;;58.53;25.95;;;7.50;99.90;;;;;;5025423;28;20032;-58
2022/01/29 08:03:13;;;;;;;56.33;24.52;;;7.50;99.90;;;;;;5024491;28;20044;-56
2022/01/29 08:05:39;;;;;;;55.08;25.30;;;7.50;99.90;;;;;;5026428;28;20029;-54
2022/01/29 08:08:05;;;;;;;48.55;22.98;;;7.50;99.90;;;;;;5023910;28;20549;-55
2022/01/29 08:10:31;;;;;;;48.30;21.98;;;7.60;99.90;;;;;;5027225;28;20049;-56
2022/01/29 08:12:56;;;;;;;44.25;21.95;;;7.50;99.90;;;;;;5022930;28;20037;-57
2022/01/29 08:15:22;;;;;;;42.67;19.65;;;7.60;99.90;;;;;;5020330;28;20033;-56
2022/01/29 08:17:48;;;;;;;47.03;22.25;;;7.60;99.90;;;;;;5024519;28;20491;-54
2022/01/29 08:20:13;;;;;;;42.80;21.98;;;7.60;99.90;;;;;;5028495;28;20030;-54
2022/01/29 08:22:39;;;;;;;39.28;19.95;;;7.60;99.90;;;;;;5024763;28;20030;-57
2022/01/29 08:25:05;;;;;;;39.42;19.40;;;7.60;99.90;;;;;;5028889;28;20112;-56
2022/01/29 08:27:31;;;;;;;44.75;21.50;;;7.60;99.90;;;;;;5023517;28;20446;-56
2022/01/29 08:29:57;;;;;;;39.17;19.55;;;7.60;99.90;;;;;;5030903;28;20079;-55
2022/01/29 08:32:22;;;;;;;36.88;19.25;;;7.60;99.90;;;;;;5022431;28;20030;-53
2022/01/29 08:34:48;;;;;;;37.05;18.60;;;7.60;99.90;;;;;;5032791;28;20506;-51
2022/01/29 08:37:14;;;;;;;32.30;17.85;;;7.70;99.90;;;;;;5017508;28;20045;-51
2022/01/29 08:39:40;;;;;;;36.88;18.27;;;7.70;99.90;;;;;;5032738;28;20025;-51
2022/01/29 08:42:07;;;;;;;37.55;18.45;;;7.70;99.90;;;;;;5022136;28;20041;-53
2022/01/29 08:44:32;;;;;;;32.30;16.85;;;7.70;99.90;;;;;;5032371;28;20040;-54
2022/01/29 08:46:58;;;;;;;34.15;16.20;;;7.70;99.90;;;;;;5019698;28;20396;-56
2022/01/29 08:49:25;;;;;;;31.33;17.52;;;7.70;99.90;;;;;;5030826;28;20454;-56
2022/01/29 08:51:51;;;;;;;33.83;17.63;;;7.70;99.90;;;;;;5022832;28;20387;-56
2022/01/29 08:54:17;;;;;;;26.65;14.73;;;7.70;99.90;;;;;;5023674;28;20064;-56
2022/01/29 08:56:44;;;;;;;34.40;15.75;;;7.70;99.90;;;;;;5021714;28;20122;-57
2022/01/29 08:59:10;;;;;;;31.20;16.63;;;7.70;99.90;;;;;;5023642;28;20030;-58
2022/01/29 09:01:36;;;;;;;27.83;15.40;;;7.70;99.90;;;;;;5024355;28;20021;-55
2022/01/29 09:04:01;;;;;;;29.85;16.05;;;7.70;99.90;;;;;;5015805;28;20042;-54
2022/01/29 09:06:27;;;;;;;27.13;13.43;;;7.80;99.90;;;;;;5015072;28;20031;-59
2022/01/29 09:08:53;;;;;;;31.20;14.32;;;7.80;99.90;;;;;;5026543;28;20026;-59
2022/01/29 09:11:20;;;;;;;31.92;14.20;;;7.80;99.90;;;;;;5020231;28;20105;-58
2022/01/29 09:13:46;;;;;;;26.38;14.32;;;7.80;99.90;;;;;;5027806;28;20038;-58
2022/01/29 09:16:12;;;;;;;24.52;14.60;;;7.80;99.90;;;;;;5019549;28;20026;-57
2022/01/29 09:18:38;;;;;;;24.02;13.35;;;7.90;99.90;;;;;;5028522;28;20232;-58
2022/01/29 09:21:05;;;;;;;26.77;14.85;;;7.80;99.90;;;;;;5019633;28;20050;-60
2022/01/29 09:23:31;;;;;;;28.35;14.52;;;7.90;99.90;;;;;;5030678;28;20017;-58
2022/01/29 09:25:56;;;;;;;25.08;13.82;;;7.90;99.90;;;;;;5019465;28;20156;-59
2022/01/29 09:28:23;;;;;;;27.77;14.82;;;7.80;99.90;;;;;;5030232;28;20467;-60
2022/01/29 09:30:49;;;;;;;26.67;14.60;;;7.90;99.90;;;;;;5020290;28;20121;-60
2022/01/29 09:33:16;;;;;;;24.17;13.75;;;7.90;99.90;;;;;;5028228;28;20029;-59
2022/01/29 09:35:42;;;;;;;22.65;13.20;;;7.90;99.90;;;;;;5022181;28;20034;-58
2022/01/29 09:38:09;;;;;;;26.20;12.50;;;7.90;99.90;;;;;;5027411;28;20363;-60
2022/01/29 09:40:36;;;;;;;25.98;13.20;;;7.90;99.90;;;;;;5014951;28;20445;-59
2022/01/29 09:43:05;;;;;;;24.52;13.13;;;8.00;99.90;;;;;;5017031;28;20141;-58
2022/01/29 09:45:31;;;;;;;21.35;11.25;;;8.00;99.90;;;;;;5011221;28;20021;-58
2022/01/29 09:48:04;;;;;;;21.88;12.15;;;8.00;99.90;;;;;;5022056;28;20036;-59
2022/01/29 09:50:34;;;;;;;22.80;13.00;;;8.00;99.90;;;;;;5019397;28;20022;-60
2022/01/29 09:53:02;;;;;;;19.98;11.82;;;8.00;99.90;;;;;;5007345;28;20038;-58
2022/01/29 09:55:29;;;;;;;20.65;12.55;;;8.00;99.90;;;;;;5016634;28;20454;-58
2022/01/29 09:57:55;;;;;;;21.67;12.48;;;8.10;99.90;;;;;;5011207;28;20034;-58
2022/01/29 10:00:21;;;;;;;20.55;12.02;;;8.00;99.90;;;;;;5016559;28;20026;-58
2022/01/29 10:03:11;;;;;;;20.02;12.45;;;8.10;99.90;;;;;;5019725;28;20025;-58
2022/01/29 10:05:40;;;;;;;21.13;11.18;;;8.00;99.90;;;;;;5015266;28;20021;-54
2022/01/29 10:08:07;;;;;;;22.58;11.13;;;8.10;99.90;;;;;;5018115;28;20080;-54
2022/01/29 10:10:45;;;;;;;22.55;12.00;;;8.10;99.90;;;;;;5020455;28;20127;-56
2022/01/29 10:13:29;;;;;;;23.35;12.38;;;8.10;99.90;;;;;;5020224;28;20026;-60
2022/01/29 10:16:22;;;;;;;19.48;11.25;;;8.10;99.90;;;;;;5011649;28;20057;-56
2022/01/29 10:18:58;;;;;;;22.30;11.60;;;8.10;99.90;;;;;;5005744;28;20085;-56
2022/01/29 10:21:32;;;;;;;17.83;10.95;;;8.20;99.90;;;;;;5004772;28;20476;-56
2022/01/29 10:24:04;;;;;;;20.38;11.93;;;8.10;99.90;;;;;;5014429;28;20511;-56
2022/01/29 10:26:41;;;;;;;23.48;11.68;;;8.20;99.90;;;;;;5025386;28;20034;-56
2022/01/29 10:29:09;;;;;;;21.88;11.05;;;8.20;99.90;;;;;;5022137;28;20022;-53
2022/01/29 10:31:39;;;;;;;20.15;10.80;;;8.20;99.90;;;;;;5005508;28;20032;-58
2022/01/29 10:39:29;;;;;;;16.17;9.70;;;8.40;99.90;;;;;;5157556;22;20434;-59
2022/01/29 10:41:55;;;;;;;20.00;10.00;;;8.40;99.90;;;;;;4993866;28;20038;-54
2022/01/29 10:44:22;;;;;;;19.27;11.18;;;8.40;99.90;;;;;;4997159;28;20057;-53
2022/01/29 10:46:50;;;;;;;14.90;9.70;;;8.40;99.90;;;;;;4998123;28;20118;-53
2022/01/29 10:49:22;;;;;;;16.45;8.43;;;8.40;99.90;;;;;;4993557;28;20058;-52
2022/01/29 10:52:04;;;;;;;14.52;8.05;;;8.40;99.90;;;;;;4990217;28;20436;-53
2022/01/29 10:54:55;;;;;;;16.17;9.25;;;8.40;99.90;;;;;;4994833;28;20472;-52
2022/01/29 10:57:29;;;;;;;15.13;9.65;;;8.40;99.90;;;;;;4995017;28;20026;-60
2022/01/29 10:59:55;;;;;;;14.40;8.68;;;8.40;99.90;;;;;;5004577;28;20427;-53
2022/01/29 11:02:24;;;;;;;22.83;9.77;;;8.40;99.90;;;;;;4990656;28;20069;-52
2022/01/29 11:04:50;;;;;;;16.85;9.38;;;8.40;99.90;;;;;;4996998;28;20157;-56
2022/01/29 11:07:18;;;;;;;18.25;9.43;;;8.40;99.90;;;;;;4987995;28;20117;-54
2022/01/29 11:09:51;;;;;;;19.95;9.23;;;8.40;99.90;;;;;;4986516;28;20522;-52
2022/01/29 11:12:25;;;;;;;16.65;9.27;;;8.40;99.90;;;;;;4999480;28;20486;-51
2022/01/29 11:14:58;;;;;;;14.80;9.13;;;8.40;99.90;;;;;;4993742;28;20033;-52
2022/01/29 11:17:25;;;;;;;14.95;8.60;;;8.50;99.90;;;;;;4989775;28;20030;-51
2022/01/29 11:19:51;;;;;;;14.95;9.20;;;8.50;99.90;;;;;;4994180;28;20033;-52
2022/01/29 11:22:24;;;;;;;16.05;10.05;;;8.50;99.90;;;;;;4986639;28;20026;-53
2022/01/29 11:24:57;;;;;;;17.48;10.20;;;8.50;99.90;;;;;;4999904;28;20029;-54
2022/01/29 11:27:28;;;;;;;18.40;10.55;;;8.50;99.90;;;;;;5002190;28;20037;-51
2022/01/29 11:30:09;;;;;;;19.20;10.02;;;8.50;99.90;;;;;;4979698;28;20368;-51
2022/01/29 11:32:40;;;;;;;17.95;11.25;;;8.50;99.90;;;;;;4992916;28;20027;-50
2022/01/29 11:35:05;;;;;;;20.23;11.90;;;8.50;99.90;;;;;;5004800;28;20026;-52
2022/01/29 11:37:53;;;;;;;23.42;12.40;;;8.50;99.90;;;;;;5006412;28;20080;-52
2022/01/29 11:40:37;;;;;;;21.58;11.93;;;8.50;99.90;;;;;;5005012;28;20030;-52
2022/01/29 11:43:17;;;;;;;17.42;11.18;;;8.50;99.90;;;;;;5005903;28;20040;-53
2022/01/29 11:45:50;;;;;;;19.95;12.23;;;8.50;99.90;;;;;;5001297;28;20026;-56
2022/01/29 11:48:25;;;;;;;20.70;11.38;;;8.50;99.90;;;;;;5007591;28;20395;-58
2022/01/29 11:50:55;;;;;;;21.63;11.48;;;8.60;99.90;;;;;;4997774;28;20383;-50
2022/01/29 11:53:22;;;;;;;19.30;11.02;;;8.80;99.90;;;;;;4999426;28;20060;-50
2022/01/29 11:55:49;;;;;;;23.92;11.73;;;8.80;99.90;;;;;;4987919;28;20484;-53
2022/01/29 11:58:26;;;;;;;25.02;10.80;;;8.80;99.90;;;;;;4990020;28;20031;-50
2022/01/29 12:00:56;;;;;;;18.08;10.25;;;8.90;99.90;;;;;;4987746;28;20027;-54
2022/01/29 12:03:38;;;;;;;15.43;8.70;;;8.90;99.90;;;;;;4997886;28;20037;-53
2022/01/29 12:06:12;;;;;;;19.00;10.07;;;8.90;99.90;;;;;;4981374;28;20126;-53
2022/01/29 12:08:57;;;;;;;20.10;9.57;;;8.90;99.90;;;;;;5005811;28;20487;-55
2022/01/29 12:11:23;;;;;;;16.83;9.00;;;8.90;99.90;;;;;;4996526;28;20092;-52
2022/01/29 12:14:14;;;;;;;19.05;9.45;;;8.90;99.90;;;;;;5009418;28;20113;-51
2022/01/29 12:16:50;;;;;;;17.85;8.98;;;8.80;99.90;;;;;;4992320;28;20027;-52
2022/01/29 12:19:42;;;;;;;20.08;9.10;;;8.90;99.90;;;;;;4987517;28;20377;-52
2022/01/29 12:22:09;;;;;;;22.08;9.63;;;8.90;99.90;;;;;;4988289;28;20488;-54
2022/01/29 12:24:35;;;;;;;17.80;8.90;;;8.90;99.90;;;;;;4985705;28;20018;-54
2022/01/29 12:27:01;;;;;;;16.15;8.45;;;8.90;99.90;;;;;;4987362;28;20399;-54
2022/01/29 12:29:27;;;;;;;15.98;7.85;;;8.90;99.90;;;;;;4982690;28;20051;-52
2022/01/29 12:31:56;;;;;;;17.88;9.13;;;8.90;99.90;;;;;;4991130;28;20092;-54
2022/01/29 12:34:21;;;;;;;13.57;8.20;;;8.90;99.90;;;;;;5004585;28;20088;-51
2022/01/29 12:36:47;;;;;;;16.25;8.15;;;9.00;99.90;;;;;;4993281;28;20438;-52
2022/01/29 12:39:20;;;;;;;13.95;8.50;;;8.90;99.90;;;;;;4989195;28;20041;-51
2022/01/29 12:42:03;;;;;;;15.60;8.13;;;8.90;99.90;;;;;;4984465;28;20014;-52
2022/01/29 12:44:28;;;;;;;;;;;8.90;99.90;;;;;;5004521;28;20112;-51
2022/01/29 12:46:54;;;;;;;19.30;7.72;;;8.90;99.90;;;;;;5004912;28;19968;-50
2022/01/29 12:49:21;;;;;;;13.43;6.70;;;8.90;99.90;;;;;;5011504;28;20038;-54
2022/01/29 12:51:56;;;;;;;11.60;7.07;;;9.00;99.90;;;;;;5011253;28;20076;-52